createdAt,value
2017-10-23T00:03:30.920Z,100844.47
2017-10-23T00:08:34.342Z,100837.95
2017-10-23T00:13:36.258Z,100840.81
2017-10-23T00:18:38.948Z,100844.43
2017-10-23T00:23:40.844Z,100846.63
2017-10-23T00:28:42.749Z,100839.63
2017-10-23T00:33:44.663Z,100849.68
2017-10-23T00:38:46.586Z,100852.12
2017-10-23T00:43:50.063Z,100856.25
2017-10-23T00:48:51.991Z,100854.29
2017-10-23T00:53:54.953Z,100855.67
2017-10-23T00:58:57.402Z,100850.09
2017-10-23T01:04:00.182Z,100849.80
2017-10-23T01:09:03.096Z,100843.16
2017-10-23T01:14:05.880Z,100850.38
2017-10-23T01:19:08.885Z,100846.41
2017-10-23T01:24:12.444Z,100853.41
2017-10-23T01:29:15.317Z,100845.84
2017-10-23T01:34:18.220Z,100844.14
2017-10-23T01:39:21.193Z,100840.69
2017-10-23T01:44:24.446Z,100841.98
2017-10-23T01:49:27.861Z,100841.09
2017-10-23T01:54:30.792Z,100846.45
2017-10-23T01:59:33.768Z,100848.64
2017-10-23T02:04:36.681Z,100848.52
2017-10-23T02:09:39.130Z,100842.66
2017-10-23T02:14:41.980Z,100844.06
2017-10-23T02:19:44.586Z,100858.53
2017-10-23T02:24:47.167Z,100856.55
2017-10-23T02:29:49.881Z,100842.71
2017-10-23T02:34:52.733Z,100848.12
2017-10-23T02:39:55.338Z,100846.16
2017-10-23T02:44:57.823Z,100850.05
2017-10-23T02:50:01.384Z,100850.66
2017-10-23T02:55:04.147Z,100860.23
2017-10-23T03:00:07.057Z,100864.41
2017-10-23T03:05:09.819Z,100865.01
2017-10-23T03:10:12.851Z,100864.08
2017-10-23T03:15:15.849Z,100877.98
2017-10-23T03:20:18.809Z,100874.52
2017-10-23T03:25:21.132Z,100886.06
2017-10-23T03:30:24.169Z,100882.99
2017-10-23T03:35:27.249Z,100882.66
2017-10-23T03:40:30.033Z,100882.53
2017-10-23T03:45:33.633Z,100882.79
2017-10-23T03:50:36.320Z,100884.52
2017-10-23T03:55:39.146Z,100887.14
2017-10-23T04:00:42.205Z,100891.21
2017-10-23T04:05:45.263Z,100901.43
2017-10-23T04:10:47.775Z,100901.80
2017-10-23T04:15:51.365Z,100905.08
2017-10-23T04:20:54.136Z,100909.11
2017-10-23T04:25:56.915Z,100909.84
2017-10-23T04:30:59.980Z,100905.96
2017-10-23T04:36:02.953Z,100909.73
2017-10-23T04:41:05.775Z,100917.34
2017-10-23T04:46:08.843Z,100917.78
2017-10-23T04:51:10.892Z,100918.20
2017-10-23T04:56:13.719Z,100922.80
2017-10-23T05:01:15.784Z,100919.30
2017-10-23T05:06:17.896Z,100908.91
2017-10-23T05:11:23.762Z,100930.20
2017-10-23T05:16:26.663Z,100929.97
2017-10-23T05:21:35.913Z,100923.84
2017-10-23T05:26:38.070Z,100927.74
2017-10-23T05:31:40.172Z,100935.88
2017-10-23T05:36:42.231Z,100935.91
2017-10-23T05:41:45.555Z,100940.30
2017-10-23T05:46:48.623Z,100941.85
2017-10-23T05:51:54.117Z,100947.46
2017-10-23T05:56:57.947Z,100950.69
2017-10-23T06:02:05.662Z,100953.77
2017-10-23T06:07:08.028Z,100959.03
2017-10-23T06:12:10.084Z,100963.14
2017-10-23T06:17:13.300Z,100966.80
2017-10-23T06:22:15.326Z,100962.71
2017-10-23T06:27:17.419Z,100970.13
2017-10-23T06:32:19.423Z,100964.25
2017-10-23T06:37:21.432Z,100979.72
2017-10-23T06:42:23.457Z,100976.70
2017-10-23T06:47:25.539Z,100979.50
2017-10-23T06:52:27.551Z,100987.84
2017-10-23T06:57:29.653Z,100990.42
2017-10-23T07:02:31.739Z,100988.37
2017-10-23T07:07:33.959Z,100996.02
2017-10-23T07:12:36.285Z,100994.34
2017-10-23T07:17:38.537Z,101001.15
2017-10-23T07:22:40.613Z,101010.12
2017-10-23T07:27:42.920Z,101009.81
2017-10-23T07:32:45.004Z,101010.14
2017-10-23T07:37:46.991Z,101018.15
2017-10-23T07:42:49.305Z,101019.19
2017-10-23T07:47:51.382Z,101012.19
2017-10-23T07:52:55.293Z,101014.08
2017-10-23T07:57:57.248Z,101017.59
2017-10-23T08:02:59.222Z,101011.83
2017-10-23T08:08:01.900Z,101019.69
2017-10-23T08:13:03.871Z,101019.80
2017-10-23T08:18:06.512Z,101027.86
2017-10-23T08:23:08.453Z,101026.73
2017-10-23T08:28:10.479Z,101037.69
2017-10-23T08:33:12.444Z,101034.47
2017-10-23T08:38:14.399Z,101034.47
2017-10-23T08:43:16.311Z,101026.09
2017-10-23T08:48:19.015Z,101032.45
2017-10-23T08:53:21.012Z,101032.30
2017-10-23T08:58:23.139Z,101029.36
2017-10-23T09:03:25.126Z,101026.64
2017-10-23T09:08:27.117Z,101016.27
2017-10-23T09:13:29.111Z,101010.16
2017-10-23T09:18:37.895Z,101004.80
2017-10-23T09:23:39.853Z,101016.19
2017-10-23T09:28:41.775Z,101011.19
2017-10-23T09:33:44.545Z,101019.94
2017-10-23T09:38:47.268Z,101023.47
2017-10-23T09:43:49.368Z,101028.28
2017-10-23T09:48:52.848Z,101037.97
2017-10-23T09:53:54.838Z,101048.69
2017-10-23T09:58:56.891Z,101056.84
2017-10-23T10:03:58.973Z,101051.94
2017-10-23T10:09:01.195Z,101063.36
2017-10-23T10:14:05.166Z,101077.17
2017-10-23T10:19:07.144Z,101074.91
2017-10-23T10:24:09.103Z,101083.75
2017-10-23T10:29:11.827Z,101078.09
2017-10-23T10:34:14.507Z,101081.23
2017-10-23T10:39:16.494Z,101075.89
2017-10-23T10:44:18.580Z,101067.07
2017-10-23T10:49:21.973Z,101070.02
2017-10-23T10:54:24.791Z,101076.50
2017-10-23T10:59:26.741Z,101075.28
2017-10-23T11:04:29.432Z,101060.17
2017-10-23T11:09:31.344Z,101053.57
2017-10-23T11:14:34.045Z,101046.73
2017-10-23T11:19:36.039Z,101049.17
2017-10-23T11:24:38.065Z,101052.53
2017-10-23T11:29:40.110Z,101050.40
2017-10-23T11:34:42.099Z,101047.60
2017-10-23T11:39:44.803Z,101033.45
2017-10-23T11:44:47.531Z,101035.62
2017-10-23T11:49:52.986Z,101019.73
2017-10-23T11:54:55.863Z,101031.48
2017-10-23T11:59:58.499Z,101037.45
2017-10-23T12:05:00.434Z,101026.22
2017-10-23T12:10:02.364Z,101019.52
2017-10-23T12:15:04.410Z,101015.27
2017-10-23T12:20:06.372Z,101021.77
2017-10-23T12:25:09.176Z,101017.84
2017-10-23T12:30:11.463Z,101021.11
2017-10-23T12:35:13.467Z,101024.60
2017-10-23T12:40:15.502Z,101025.22
2017-10-23T12:45:17.687Z,101030.23
2017-10-23T12:50:19.612Z,101034.85
2017-10-23T12:55:21.551Z,101042.96
2017-10-23T13:00:27.119Z,101042.21
2017-10-23T13:05:29.300Z,101037.70
2017-10-23T13:10:31.203Z,101034.29
2017-10-23T13:15:33.132Z,101039.23
2017-10-23T13:20:35.089Z,101049.98
2017-10-23T13:25:37.310Z,101057.19
2017-10-23T13:30:39.265Z,101052.91
2017-10-23T13:35:41.234Z,101069.00
2017-10-23T13:40:43.192Z,101069.08
2017-10-23T13:45:45.193Z,101073.66
2017-10-23T13:50:47.159Z,101073.53
2017-10-23T13:55:49.127Z,101088.02
2017-10-23T14:00:51.981Z,101090.78
2017-10-23T14:05:53.879Z,101101.94
2017-10-23T14:10:55.819Z,101101.44
2017-10-23T14:15:58.556Z,101101.52
2017-10-23T14:21:01.351Z,101103.31
2017-10-23T14:26:06.871Z,101109.71
2017-10-23T14:31:10.287Z,101116.67
2017-10-23T14:36:16.712Z,101122.23
2017-10-23T14:41:18.832Z,101129.23
2017-10-23T14:46:21.063Z,101136.33
2017-10-23T14:51:23.115Z,101142.91
2017-10-23T14:56:26.072Z,101149.76
2017-10-23T15:01:28.122Z,101144.80
2017-10-23T15:06:30.168Z,101153.59
2017-10-23T15:11:32.865Z,101154.09
2017-10-23T15:16:34.798Z,101153.78
2017-10-23T15:21:37.527Z,101169.27
2017-10-23T15:26:39.644Z,101176.02
2017-10-23T15:31:41.569Z,101184.91
2017-10-23T15:36:43.551Z,101200.39
2017-10-23T15:41:45.495Z,101199.45
2017-10-23T15:46:48.417Z,101191.80
2017-10-23T15:51:50.396Z,101208.46
2017-10-23T15:56:52.343Z,101212.68
2017-10-23T16:01:54.360Z,101215.83
2017-10-23T16:06:57.258Z,101225.67
2017-10-23T16:11:59.180Z,101231.55
2017-10-23T16:17:01.280Z,101234.72
2017-10-23T16:22:03.229Z,101245.44
2017-10-23T16:27:05.839Z,101255.61
2017-10-23T16:32:08.537Z,101267.19
2017-10-23T16:37:11.272Z,101280.73
2017-10-23T16:42:13.261Z,101287.49
2017-10-23T16:47:15.313Z,101292.33
2017-10-23T16:52:17.243Z,101301.97
2017-10-23T16:57:19.188Z,101313.04
2017-10-23T17:02:22.195Z,101313.41
2017-10-23T17:07:24.295Z,101325.78
2017-10-23T17:12:27.144Z,101322.67
2017-10-23T17:17:29.180Z,101334.67
2017-10-23T17:22:31.141Z,101338.66
2017-10-23T17:27:34.571Z,101347.09
2017-10-23T17:32:36.543Z,101355.13
2017-10-23T17:37:38.471Z,101358.44
2017-10-23T17:42:40.393Z,101367.11
2017-10-23T17:47:42.544Z,101382.83
2017-10-23T17:52:44.568Z,101390.30
2017-10-23T17:57:46.519Z,101405.95
2017-10-23T18:02:48.484Z,101412.16
2017-10-23T18:07:50.411Z,101417.47
2017-10-23T18:12:52.336Z,101419.92
2017-10-23T18:17:54.271Z,101426.31
2017-10-23T18:22:56.196Z,101426.63
2017-10-23T18:27:58.105Z,101428.06
2017-10-23T18:33:00.019Z,101439.05
2017-10-23T18:38:01.942Z,101443.48
2017-10-23T18:43:04.789Z,101447.63
2017-10-23T18:48:08.399Z,101460.79
2017-10-23T18:53:11.135Z,101468.50
2017-10-23T18:58:13.905Z,101467.43
2017-10-23T19:03:16.309Z,101470.13
2017-10-23T19:08:18.659Z,101474.44
2017-10-23T19:13:20.591Z,101471.25
2017-10-23T19:18:22.504Z,101479.91
2017-10-23T19:23:24.496Z,101482.20
2017-10-23T19:28:26.449Z,101482.70
2017-10-23T19:33:28.428Z,101493.12
2017-10-23T19:38:30.391Z,101498.50
2017-10-23T19:43:32.342Z,101501.31
2017-10-23T19:48:35.051Z,101508.58
2017-10-23T19:53:37.731Z,101515.97
2017-10-23T19:58:39.665Z,101519.67
2017-10-23T20:03:41.602Z,101520.48
2017-10-23T20:08:44.375Z,101522.23
2017-10-23T20:13:46.365Z,101532.22
2017-10-23T20:18:48.308Z,101538.84
2017-10-23T20:23:50.215Z,101539.33
2017-10-23T20:28:52.871Z,101547.98
2017-10-23T20:33:54.768Z,101557.53
2017-10-23T20:38:57.068Z,101561.02
2017-10-23T20:43:59.135Z,101562.52
2017-10-23T20:49:01.053Z,101578.39
2017-10-23T20:54:03.059Z,101587.33
2017-10-23T20:59:05.075Z,101589.90
2017-10-23T21:04:08.032Z,101593.86
2017-10-23T21:09:09.987Z,101593.14
2017-10-23T21:14:12.065Z,101598.01
2017-10-23T21:19:13.975Z,101600.53
2017-10-23T21:24:15.907Z,101603.00
2017-10-23T21:29:17.948Z,101601.75
2017-10-23T21:34:19.855Z,101596.59
2017-10-23T21:39:21.771Z,101606.03
2017-10-23T21:44:23.819Z,101595.67
2017-10-23T21:49:25.740Z,101605.77
2017-10-23T21:54:28.428Z,101610.92
2017-10-23T21:59:30.349Z,101614.03
2017-10-23T22:04:33.076Z,101619.69
2017-10-23T22:09:36.026Z,101627.30
2017-10-23T22:14:37.921Z,101633.27
2017-10-23T22:19:40.578Z,101648.05
2017-10-23T22:24:42.466Z,101638.09
2017-10-23T22:29:44.413Z,101645.05
2017-10-23T22:34:46.360Z,101649.44
2017-10-23T22:39:49.034Z,101651.06
2017-10-23T22:44:51.263Z,101647.35
2017-10-23T22:49:53.173Z,101647.30
2017-10-23T22:54:55.146Z,101654.95
2017-10-23T22:59:57.079Z,101644.89
2017-10-23T23:04:59.736Z,101656.67
2017-10-23T23:10:01.716Z,101655.30
2017-10-23T23:15:04.398Z,101660.34
2017-10-23T23:20:06.359Z,101669.27
2017-10-23T23:25:08.444Z,101653.81
2017-10-23T23:30:10.503Z,101647.69
2017-10-23T23:35:12.425Z,101646.91
2017-10-23T23:40:14.447Z,101661.32
2017-10-23T23:45:17.163Z,101668.22
2017-10-23T23:50:19.156Z,101671.13
2017-10-23T23:55:21.132Z,101662.85
